WetterOnline ( https://www.wetteronline.de )

Wetter aktuell Lengersau

Aktuelles Wetter: Kempten (705m)

6-stündlich | Neueste Meldungen
Ortszeit Temperatur Wetter
Mi, 22.05. 8:00 12.2° C bedeckt
Mi, 22.05. 2:00 10.9° C bedeckt
Di, 21.05. 20:00 12.1° C bedeckt
Di, 21.05. 14:00 12.3° C leichter Regen
Di, 21.05. 8:00 12.0° C leichter Regen
Di, 21.05. 2:00 13.5° C bedeckt
Mo, 20.05. 20:00 19.8° C bedeckt
Mo, 20.05. 14:00 21.7° C fast wolkenlos
Ortszeit Temperatur Wetter
Mi, 22.05. 13:00 13.0° C bedeckt
Mi, 22.05. 12:50 13.0° C bedeckt
Mi, 22.05. 12:40 12.8° C leichter Regen
Mi, 22.05. 12:30 15.1° C bedeckt
Mi, 22.05. 12:20 15.1° C bedeckt
Mi, 22.05. 12:10 14.6° C bewölkt
Mi, 22.05. 12:00 13.6° C bedeckt
Mi, 22.05. 11:30 13.6° C bedeckt
Mi, 22.05. 11:00 13.1° C bedeckt
Mi, 22.05. 10:30 12.5° C bedeckt
Mi, 22.05. 10:00 12.3° C bedeckt
Ortszeit Relative Feuchte Sichtweite
Mi, 22.05. 8:00 79% >70 km
Mi, 22.05. 2:00 83% >70 km
Di, 21.05. 20:00 85% >70 km
Di, 21.05. 14:00 86% 16 km
Di, 21.05. 8:00 90% 40 km
Di, 21.05. 2:00 84% 60 km
Mo, 20.05. 20:00 54% >70 km
Mo, 20.05. 14:00 43% >70 km
Ortszeit Relative Feuchte Sichtweite
Mi, 22.05. 13:00 85% >70 km
Mi, 22.05. 12:50 85% -
Mi, 22.05. 12:40 80% -
Mi, 22.05. 12:30 69% 60 km
Mi, 22.05. 12:20 69% -
Mi, 22.05. 12:10 70% -
Mi, 22.05. 12:00 74% 50 km
Mi, 22.05. 11:30 75% 55 km
Mi, 22.05. 11:00 78% 50 km
Mi, 22.05. 10:30 85% 55 km
Mi, 22.05. 10:00 86% >70 km
Ortszeit Niederschlagsmenge Niederschlagsart
Mi, 22.05. 8:00 0.1 l/m2 in 12 Std. Regen
Mi, 22.05. 2:00 0.0 l/m2 in 6 Std. -
Di, 21.05. 20:00 6 l/m2 in 12 Std. Regen
Di, 21.05. 14:00 5 l/m2 in 6 Std. Regen
Di, 21.05. 8:00 3 l/m2 in 12 Std. Regen
Di, 21.05. 2:00 0.0 l/m2 in 6 Std. -
Mo, 20.05. 20:00 0.0 l/m2 in 12 Std. -
Mo, 20.05. 14:00 0.0 l/m2 in 6 Std. -
Ortszeit Niederschlagsmenge Niederschlagsart
Mi, 22.05. 13:00 0.4 l/m2 in 1 Std. Regen
Mi, 22.05. 12:50 keine Meldung -
Mi, 22.05. 12:40 keine Meldung -
Mi, 22.05. 12:30 <0.05 l/m2 in 30 Min Schneeregen
Mi, 22.05. 12:20 keine Meldung -
Mi, 22.05. 12:10 keine Meldung -
Mi, 22.05. 12:00 <0.05 l/m2 in 1 Std. Regen
Mi, 22.05. 11:30 <0.05 l/m2 in 30 Min Schneeregen
Mi, 22.05. 11:00 <0.05 l/m2 in 1 Std. Regen
Mi, 22.05. 10:30 <0.05 l/m2 in 30 Min Schneeregen
Mi, 22.05. 10:00 0.5 l/m2 in 1 Std. Regen
Ortszeit Stärke Spitze Richtung
km/h Bft. km/h Grad Sektor
Mi, 22.05. 8:00 7 2 25 200° S
Mi, 22.05. 2:00 7 2 18 180° S
Di, 21.05. 20:00 7 2 25 190° S
Di, 21.05. 14:00 9 2 28 230° SW
Di, 21.05. 8:00 4 1 32 200° S
Di, 21.05. 2:00 2 1 17 100° O
Mo, 20.05. 20:00 6 1 28 80° O
Mo, 20.05. 14:00 9 2 24 30° NO
Ortszeit Stärke Spitze Richtung
km/h Bft. km/h Grad Sektor
Mi, 22.05. 13:00 9 2 35 220° SW
Mi, 22.05. 12:50 9 2 - 220° SW
Mi, 22.05. 12:40 14 3 - 240° SW
Mi, 22.05. 12:30 13 3 35 260° W
Mi, 22.05. 12:20 13 3 - 260° W
Mi, 22.05. 12:10 17 3 - 260° W
Mi, 22.05. 12:00 14 3 32 230° SW
Mi, 22.05. 11:30 11 2 28 230° SW
Mi, 22.05. 11:00 11 2 29 220° SW
Mi, 22.05. 10:30 7 2 25 220° SW
Mi, 22.05. 10:00 7 2 25 210° SW
Ortszeit Untergrenze Bedeckung Gattung
total tief tief mittel hoch
Mi, 22.05. 8:00 780 m 8/8 8/8 - - -
Mi, 22.05. 2:00 1800 m 8/8 8/8 - - -
Di, 21.05. 20:00 1800 m 8/8 8/8 - - -
Di, 21.05. 14:00 510 m 8/8 8/8 - - -
Di, 21.05. 8:00 30 m 7/8 7/8 - - -
Di, 21.05. 2:00 3600 m 8/8 8/8 - - -
Mo, 20.05. 20:00 4500 m 8/8 8/8 - - -
Mo, 20.05. 14:00 9000 m 2/8 0/8 - - -
Ortszeit Bedeckungsgrad in Achtel und Wolkenuntergrenze
Mi, 22.05. 13:00 1(540m) 7(1800m) 8(2100m)
Mi, 22.05. 12:50 1(540m) 7(1800m) 8(2100m)
Mi, 22.05. 12:40 8
Mi, 22.05. 12:30 1(720m) 8(1800m)
Mi, 22.05. 12:20 1(720m) 8(1800m)
Mi, 22.05. 12:10 7
Mi, 22.05. 12:00 7(1800m) 8(2100m)
Mi, 22.05. 11:30 7(1800m) 7(2100m) 8(2700m)
Mi, 22.05. 11:00 1(600m) 4(750m) 8(1500m)
Mi, 22.05. 10:30 3(630m) 7(1320m) 8(1500m)
Mi, 22.05. 10:00 1(810m) 8(1500m)
Ortszeit Luftdruck NN (hPa) Tendenz (hPa in 3 Std.)
Mi, 22.05. 8:00 1012 + 1,0
Mi, 22.05. 2:00 1011 + 0,6
Di, 21.05. 20:00 1009 - 0,1
Di, 21.05. 14:00 1008 + 0,7
Di, 21.05. 8:00 1007 + 0,4
Di, 21.05. 2:00 1006 - 1,4
Mo, 20.05. 20:00 1006 - 0,5
Mo, 20.05. 14:00 1007 - 1,2
Ortszeit Luftdruck NN (hPa) Tendenz (hPa in 3 Std.)
Mi, 22.05. 13:00 1013 + 0,8
Mi, 22.05. 12:50 1013 keine Meldung
Mi, 22.05. 12:40 1013 keine Meldung
Mi, 22.05. 12:30 1012 + 0,6
Mi, 22.05. 12:20 1012 keine Meldung
Mi, 22.05. 12:10 1013 keine Meldung
Mi, 22.05. 12:00 1013 + 0,9
Mi, 22.05. 11:30 1013 + 1,1
Mi, 22.05. 11:00 1013 + 1,3
Mi, 22.05. 10:30 1013 + 1,3
Mi, 22.05. 10:00 1013 + 1,4
Ortszeit Schneehöhe (cm)
Mi, 22.05. 8:00 0
Mi, 22.05. 2:00 0
Di, 21.05. 20:00 0
Di, 21.05. 14:00 0
Di, 21.05. 8:00 0
Di, 21.05. 2:00 0
Mo, 20.05. 20:00 0
Mo, 20.05. 14:00 0
Ortszeit Schneehöhe (cm)
Mi, 22.05. 13:00 0
Mi, 22.05. 12:50 0
Mi, 22.05. 12:40 -
Mi, 22.05. 12:30 0
Mi, 22.05. 12:20 0
Mi, 22.05. 12:10 -
Mi, 22.05. 12:00 0
Mi, 22.05. 11:30 0
Mi, 22.05. 11:00 0
Mi, 22.05. 10:30 0
Mi, 22.05. 10:00 0
Link zu dieser Seite / Seite empfehlen

Das Wetter in ...